Time;durP1;ratioP1;P1;durP2;ratioP2;P2;SDS_P1;SDS_P2;PMS_P1;PMS_P2;Temp;Humidity;BMP_temperature;BMP_pressure;BME280_temperature;BME280_humidity;BME280_pressure;Samples;Min_cycle;Max_cycle;Signal;HPM_P1;HPM_P2
2021/06/16 00:02:21;;;;;;;8.20;4.60;;;19.50;83.30;;;;;;5118532;28;20055;-69
2021/06/16 00:04:47;;;;;;;7.00;4.38;;;19.50;83.40;;;;;;5118916;28;20051;-69
2021/06/16 00:07:13;;;;;;;6.03;4.90;;;19.50;83.20;;;;;;5118700;28;20031;-69
2021/06/16 00:09:39;;;;;;;7.47;5.07;;;19.50;83.20;;;;;;5118370;28;20027;-69
2021/06/16 00:12:06;;;;;;;9.30;4.50;;;19.40;83.40;;;;;;5118278;28;20096;-69
2021/06/16 00:14:31;;;;;;;9.40;4.65;;;19.40;83.40;;;;;;5118757;28;20051;-69
2021/06/16 00:16:57;;;;;;;9.48;4.97;;;19.40;83.50;;;;;;5118174;28;20455;-69
2021/06/16 00:19:23;;;;;;;7.68;4.43;;;19.40;83.70;;;;;;5118483;28;20016;-69
2021/06/16 00:21:49;;;;;;;6.72;4.13;;;19.40;84.30;;;;;;5117825;28;20414;-69
2021/06/16 00:24:18;;;;;;;6.30;3.90;;;19.30;84.50;;;;;;5118161;28;20487;-69
2021/06/16 00:26:44;;;;;;;7.05;4.97;;;19.20;85.10;;;;;;5118033;28;20110;-69
2021/06/16 00:29:09;;;;;;;9.45;5.00;;;19.30;84.00;;;;;;5117860;28;20119;-69
2021/06/16 00:31:35;;;;;;;8.13;4.55;;;19.30;84.00;;;;;;5117986;28;20026;-69
2021/06/16 00:34:01;;;;;;;9.50;5.53;;;19.30;84.00;;;;;;5117885;28;20415;-69
2021/06/16 00:36:27;;;;;;;7.10;4.90;;;19.20;84.70;;;;;;5116778;28;20479;-69
2021/06/16 00:38:53;;;;;;;9.18;4.60;;;19.20;84.40;;;;;;5117777;28;20099;-69
2021/06/16 00:41:19;;;;;;;8.45;4.70;;;19.30;84.20;;;;;;5117727;28;20019;-69
2021/06/16 00:43:44;;;;;;;10.48;5.22;;;19.30;84.20;;;;;;5117861;28;20031;-69
2021/06/16 00:46:10;;;;;;;7.63;4.57;;;19.20;84.50;;;;;;5118027;28;20051;-69
2021/06/16 00:48:36;;;;;;;10.63;5.13;;;19.20;84.60;;;;;;5117621;28;20020;-69
2021/06/16 00:51:02;;;;;;;13.55;4.95;;;19.10;84.80;;;;;;5117618;28;20032;-69
2021/06/16 00:53:28;;;;;;;9.15;5.53;;;19.20;85.00;;;;;;5117506;28;20486;-69
2021/06/16 00:55:53;;;;;;;9.48;4.95;;;19.20;84.50;;;;;;5117470;28;20111;-69
2021/06/16 00:58:20;;;;;;;11.48;6.35;;;19.30;84.20;;;;;;5117793;28;20023;-69
2021/06/16 01:01:02;;;;;;;10.77;5.43;;;19.40;84.00;;;;;;5117495;28;20035;-69
2021/06/16 01:03:34;;;;;;;12.55;4.82;;;19.40;83.70;;;;;;5117753;28;20023;-69
2021/06/16 01:06:12;;;;;;;11.05;5.47;;;19.40;84.00;;;;;;5117658;28;20369;-69
2021/06/16 01:08:47;;;;;;;11.30;5.32;;;19.40;83.70;;;;;;5117350;28;20023;-69
2021/06/16 01:11:15;;;;;;;9.13;5.95;;;19.50;83.80;;;;;;5117373;28;20072;-69
2021/06/16 01:13:44;;;;;;;11.07;6.15;;;19.50;83.70;;;;;;5117317;28;20107;-69
2021/06/16 01:16:22;;;;;;;9.85;5.65;;;19.50;83.50;;;;;;5117174;28;20028;-69
2021/06/16 01:18:53;;;;;;;12.10;5.85;;;19.40;83.70;;;;;;5117276;28;20023;-69
2021/06/16 01:21:22;;;;;;;9.75;5.45;;;19.30;83.70;;;;;;5117502;28;20023;-69
2021/06/16 01:23:56;;;;;;;9.50;4.82;;;19.40;84.00;;;;;;5117162;28;20032;-69
2021/06/16 01:26:24;;;;;;;8.68;5.05;;;19.40;84.90;;;;;;5117413;28;20035;-69
2021/06/16 01:28:52;;;;;;;9.70;4.75;;;19.30;85.10;;;;;;5116906;28;20161;-69
2021/06/16 01:31:20;;;;;;;10.63;5.07;;;19.30;84.70;;;;;;5117124;28;20036;-69
2021/06/16 01:33:47;;;;;;;8.77;5.30;;;19.40;84.20;;;;;;5117596;28;20107;-69
2021/06/16 01:36:13;;;;;;;15.85;4.93;;;19.40;84.20;;;;;;5121306;28;20024;-69
2021/06/16 01:38:40;;;;;;;10.98;6.32;;;19.40;84.00;;;;;;5121288;28;20027;-69
2021/06/16 01:41:06;;;;;;;15.38;5.15;;;19.40;83.80;;;;;;5121126;28;20323;-70
2021/06/16 01:43:32;;;;;;;7.00;4.75;;;19.40;83.70;;;;;;5120457;28;20032;-70
2021/06/16 01:46:00;;;;;;;9.40;4.95;;;19.40;83.60;;;;;;5120499;28;20046;-70
2021/06/16 01:48:28;;;;;;;12.23;4.70;;;19.40;84.50;;;;;;5121123;28;20084;-70
2021/06/16 01:50:55;;;;;;;7.55;5.25;;;19.20;85.60;;;;;;5121381;28;20034;-70
2021/06/16 01:53:22;;;;;;;9.30;5.32;;;19.00;86.00;;;;;;5121309;28;20030;-70
2021/06/16 01:55:49;;;;;;;8.95;4.97;;;19.00;86.40;;;;;;5121242;28;20353;-70
2021/06/16 01:58:17;;;;;;;12.35;5.53;;;19.10;86.00;;;;;;5121249;28;20076;-70
2021/06/16 02:00:45;;;;;;;7.75;5.00;;;19.10;85.40;;;;;;5120892;28;20019;-70
2021/06/16 02:03:10;;;;;;;7.57;5.05;;;19.20;85.10;;;;;;5120816;28;20320;-70
2021/06/16 02:05:37;;;;;;;10.35;4.88;;;19.20;84.50;;;;;;5120772;28;20035;-70
2021/06/16 02:08:10;;;;;;;8.38;4.80;;;19.20;84.50;;;;;;5121057;28;20316;-70
2021/06/16 02:10:42;;;;;;;8.25;5.15;;;19.30;84.60;;;;;;5121060;28;20028;-70
2021/06/16 02:13:09;;;;;;;8.07;4.85;;;19.20;85.20;;;;;;5120686;28;20471;-70
2021/06/16 02:15:48;;;;;;;7.93;5.00;;;19.20;84.40;;;;;;5120565;28;20031;-70
2021/06/16 02:18:16;;;;;;;6.78;5.40;;;19.30;84.00;;;;;;5120573;28;20028;-70
2021/06/16 02:20:43;;;;;;;8.18;5.13;;;19.20;84.30;;;;;;5120509;28;20028;-70
2021/06/16 02:23:09;;;;;;;10.20;5.80;;;19.30;83.80;;;;;;5120787;28;20028;-70
2021/06/16 02:25:35;;;;;;;11.85;4.95;;;19.40;83.50;;;;;;5120725;28;20038;-70
2021/06/16 02:28:02;;;;;;;8.32;4.85;;;19.40;83.70;;;;;;5120684;28;20028;-70
2021/06/16 02:30:27;;;;;;;6.68;4.20;;;19.40;83.20;;;;;;5120179;28;20428;-70
2021/06/16 02:32:53;;;;;;;7.20;4.28;;;19.40;83.60;;;;;;5120154;28;20050;-70
2021/06/16 02:35:19;;;;;;;10.05;4.85;;;19.40;83.70;;;;;;5120601;28;20020;-70
2021/06/16 02:37:53;;;;;;;11.68;5.50;;;19.40;83.20;;;;;;5120505;28;20043;-70
2021/06/16 02:40:21;;;;;;;9.40;4.68;;;19.40;82.70;;;;;;5120201;28;20051;-70
2021/06/16 02:42:49;;;;;;;8.73;5.20;;;19.40;83.30;;;;;;5120384;28;20035;-70
2021/06/16 02:45:17;;;;;;;6.68;5.88;;;19.40;83.40;;;;;;5120085;28;20032;-70
2021/06/16 02:47:51;;;;;;;9.18;5.38;;;19.30;83.30;;;;;;5119938;28;20034;-70
2021/06/16 02:50:29;;;;;;;7.25;4.85;;;19.30;83.70;;;;;;5120298;27;20050;-70
2021/06/16 02:52:59;;;;;;;12.45;5.60;;;19.30;83.90;;;;;;5119875;28;20024;-70
2021/06/16 02:55:26;;;;;;;9.75;6.38;;;19.20;83.60;;;;;;5118779;28;20068;-70
2021/06/16 02:57:53;;;;;;;9.45;5.75;;;19.10;83.80;;;;;;5120097;28;20019;-70
2021/06/16 03:00:21;;;;;;;8.73;5.15;;;19.20;83.50;;;;;;5120104;28;20019;-70
2021/06/16 03:02:48;;;;;;;7.53;5.57;;;19.20;83.40;;;;;;5120013;28;20023;-70
2021/06/16 03:05:18;;;;;;;7.25;5.72;;;19.20;84.00;;;;;;5119691;28;20028;-70
2021/06/16 03:07:45;;;;;;;9.45;5.10;;;19.20;84.20;;;;;;5119630;28;20031;-70
2021/06/16 03:10:14;;;;;;;10.40;6.03;;;19.10;84.30;;;;;;5119598;28;20074;-70
2021/06/16 03:12:41;;;;;;;6.70;5.03;;;19.10;84.20;;;;;;5119305;28;20081;-70
2021/06/16 03:15:07;;;;;;;9.40;5.50;;;19.10;85.10;;;;;;5119424;28;20028;-70
2021/06/16 03:17:34;;;;;;;8.98;5.20;;;18.90;85.80;;;;;;5119673;28;20031;-70
2021/06/16 03:20:01;;;;;;;8.68;6.20;;;18.80;86.60;;;;;;5119716;28;20023;-70
2021/06/16 03:22:30;;;;;;;12.27;5.70;;;18.70;87.10;;;;;;5119599;28;20030;-70
2021/06/16 03:24:56;;;;;;;12.85;5.40;;;18.60;87.30;;;;;;5119542;28;20032;-70
2021/06/16 03:27:24;;;;;;;7.45;6.70;;;18.60;87.60;;;;;;5119522;28;20030;-70
2021/06/16 03:29:54;;;;;;;20.75;7.43;;;18.60;87.50;;;;;;5119219;28;20062;-70
2021/06/16 03:32:22;;;;;;;10.23;5.85;;;18.60;87.60;;;;;;5119329;28;20031;-70
2021/06/16 03:34:48;;;;;;;7.35;6.07;;;18.70;87.60;;;;;;5119395;28;20087;-70
2021/06/16 03:37:15;;;;;;;9.85;5.53;;;18.70;87.60;;;;;;5119378;28;20399;-70
2021/06/16 03:39:42;;;;;;;8.48;5.68;;;18.80;86.60;;;;;;5119317;28;20050;-70
2021/06/16 03:42:09;;;;;;;8.43;5.05;;;18.80;86.70;;;;;;5119258;28;20030;-70
2021/06/16 03:44:36;;;;;;;9.10;4.82;;;18.90;86.70;;;;;;5119323;28;20043;-70
2021/06/16 03:47:03;;;;;;;9.93;5.75;;;18.90;86.80;;;;;;5118818;28;20028;-70
2021/06/16 03:49:31;;;;;;;9.65;5.70;;;18.80;86.70;;;;;;5118778;28;20399;-70
2021/06/16 03:51:57;;;;;;;8.27;5.13;;;18.90;86.50;;;;;;5118994;28;20111;-70
2021/06/16 03:54:25;;;;;;;10.73;5.20;;;18.80;86.80;;;;;;5119028;28;20119;-70
2021/06/16 03:56:52;;;;;;;7.40;5.15;;;18.80;87.60;;;;;;5117874;28;20023;-70
2021/06/16 03:59:19;;;;;;;9.77;5.90;;;18.80;87.60;;;;;;5118920;28;20072;-70
2021/06/16 04:01:46;;;;;;;8.05;5.88;;;18.90;87.10;;;;;;5118862;28;20042;-70
2021/06/16 04:04:12;;;;;;;8.23;5.22;;;18.90;87.40;;;;;;5118552;28;20070;-70
2021/06/16 04:06:43;;;;;;;6.78;5.85;;;19.00;87.60;;;;;;5118423;28;20016;-70
2021/06/16 04:09:10;;;;;;;8.93;6.10;;;19.10;87.00;;;;;;5118758;28;20051;-70
2021/06/16 04:11:37;;;;;;;11.05;5.80;;;19.20;86.90;;;;;;5118663;28;20030;-70
2021/06/16 04:14:03;;;;;;;10.82;5.78;;;19.30;86.50;;;;;;5117288;28;20035;-70
2021/06/16 04:16:29;;;;;;;9.40;5.70;;;19.40;86.00;;;;;;5118188;28;20024;-70
2021/06/16 04:18:56;;;;;;;13.57;5.10;;;19.50;86.20;;;;;;5118517;28;20094;-70
2021/06/16 04:21:22;;;;;;;10.25;6.25;;;19.60;87.00;;;;;;5118177;28;20111;-70
2021/06/16 04:23:49;;;;;;;10.50;6.28;;;19.50;86.80;;;;;;5118454;28;20056;-70
2021/06/16 04:26:17;;;;;;;10.13;6.20;;;19.60;87.20;;;;;;5118066;28;20048;-70
2021/06/16 04:28:42;;;;;;;14.52;6.22;;;19.70;86.50;;;;;;5117869;28;20028;-70
2021/06/16 04:31:09;;;;;;;9.02;6.60;;;19.80;85.70;;;;;;5118340;28;20027;-70
2021/06/16 04:33:34;;;;;;;12.70;6.65;;;19.90;85.90;;;;;;5118187;28;20124;-70
2021/06/16 04:36:04;;;;;;;7.40;6.07;;;20.00;83.40;;;;;;5118171;28;20106;-70
2021/06/16 04:38:30;;;;;;;7.80;5.60;;;20.10;84.20;;;;;;5118185;28;20066;-70
2021/06/16 04:40:55;;;;;;;8.70;5.68;;;20.30;83.40;;;;;;5118089;28;20051;-70
2021/06/16 04:43:22;;;;;;;8.48;5.60;;;20.40;82.50;;;;;;5118097;28;20040;-70
2021/06/16 04:45:47;;;;;;;10.10;5.65;;;20.60;82.00;;;;;;5117677;28;20434;-70
2021/06/16 04:48:13;;;;;;;11.23;5.47;;;20.70;82.40;;;;;;5116694;28;20031;-70
2021/06/16 04:50:39;;;;;;;7.82;6.57;;;20.80;82.00;;;;;;5117962;28;20415;-70
2021/06/16 04:53:05;;;;;;;8.77;4.85;;;20.90;82.00;;;;;;5117800;28;20473;-70
2021/06/16 04:55:30;;;;;;;7.63;4.97;;;21.00;81.80;;;;;;5117582;28;20028;-70
2021/06/16 04:57:56;;;;;;;8.52;4.57;;;21.10;79.60;;;;;;5117554;28;20028;-70
2021/06/16 05:00:22;;;;;;;9.30;4.93;;;21.10;77.60;;;;;;5117477;28;20027;-70
2021/06/16 05:02:55;;;;;;;9.32;4.53;;;21.10;79.10;;;;;;5117760;28;20027;-70
2021/06/16 05:05:22;;;;;;;7.95;4.82;;;21.20;77.60;;;;;;5117356;28;20030;-70
2021/06/16 05:07:47;;;;;;;8.82;5.05;;;21.30;78.90;;;;;;5117626;28;20320;-70
2021/06/16 05:10:13;;;;;;;6.88;4.55;;;21.20;79.60;;;;;;5117710;28;20027;-70
2021/06/16 05:12:39;;;;;;;7.90;4.78;;;21.20;78.40;;;;;;5117478;28;20116;-70
2021/06/16 05:15:06;;;;;;;9.10;4.50;;;21.30;77.20;;;;;;5117250;28;20403;-70
2021/06/16 05:17:32;;;;;;;7.85;4.72;;;21.40;76.40;;;;;;5116612;28;20148;-70
2021/06/16 05:19:58;;;;;;;7.30;4.53;;;21.60;75.80;;;;;;5117571;28;20122;-70
2021/06/16 05:22:26;;;;;;;6.53;3.90;;;21.60;76.60;;;;;;5117202;28;20023;-70
2021/06/16 05:24:53;;;;;;;11.75;4.50;;;21.70;76.80;;;;;;5117158;28;20031;-70
2021/06/16 05:27:18;;;;;;;8.00;4.13;;;21.80;75.00;;;;;;5117162;28;20055;-70
2021/06/16 05:29:45;;;;;;;8.98;4.57;;;21.80;74.20;;;;;;5117092;28;20055;-70
2021/06/16 05:32:12;;;;;;;9.32;4.80;;;21.80;74.40;;;;;;5117338;28;20301;-70
2021/06/16 05:34:38;;;;;;;16.17;5.15;;;21.80;75.00;;;;;;5117385;28;20095;-70
2021/06/16 05:37:06;;;;;;;7.13;4.18;;;21.80;74.80;;;;;;5117085;28;20388;-70
2021/06/16 05:39:32;;;;;;;9.45;3.95;;;21.90;74.40;;;;;;5117357;28;20118;-70
2021/06/16 05:41:58;;;;;;;5.28;3.58;;;21.90;76.60;;;;;;5117291;28;20448;-70
2021/06/16 05:44:24;;;;;;;7.75;4.35;;;22.00;78.20;;;;;;5117494;28;20028;-70
2021/06/16 05:46:49;;;;;;;8.05;4.38;;;22.00;78.00;;;;;;5117206;28;20088;-70
2021/06/16 05:49:15;;;;;;;7.93;4.00;;;21.90;77.30;;;;;;5116936;28;20020;-70
2021/06/16 05:51:41;;;;;;;8.15;4.47;;;22.00;79.10;;;;;;5116914;28;20032;-70
2021/06/16 05:54:10;;;;;;;9.88;4.35;;;22.00;77.30;;;;;;5117182;28;20027;-70
2021/06/16 05:56:40;;;;;;;6.82;3.88;;;22.00;77.70;;;;;;5116832;28;20427;-70
2021/06/16 05:59:07;;;;;;;13.25;4.60;;;22.20;77.60;;;;;;5117137;28;20316;-70
2021/06/16 06:01:34;;;;;;;5.45;3.88;;;22.50;77.80;;;;;;5115807;28;20019;-70
2021/06/16 06:04:01;;;;;;;10.82;4.15;;;22.70;76.70;;;;;;5117154;28;20102;-70
2021/06/16 06:06:30;;;;;;;9.57;4.70;;;23.10;75.90;;;;;;5117044;28;20052;-70
2021/06/16 06:08:56;;;;;;;7.78;3.88;;;23.50;74.60;;;;;;5117115;28;20023;-70
2021/06/16 06:11:21;;;;;;;9.32;4.97;;;23.90;74.30;;;;;;5117033;28;20038;-70
2021/06/16 06:13:47;;;;;;;5.93;4.00;;;23.80;69.60;;;;;;5117066;28;20031;-70
2021/06/16 06:16:13;;;;;;;7.43;4.78;;;24.00;70.80;;;;;;5116677;28;20402;-70
2021/06/16 06:18:39;;;;;;;7.82;4.20;;;24.50;69.10;;;;;;5116691;28;20019;-70
2021/06/16 06:21:05;;;;;;;10.27;5.10;;;25.20;66.30;;;;;;5119343;28;20027;-70
2021/06/16 06:23:30;;;;;;;9.57;4.40;;;26.00;64.50;;;;;;5120884;27;20458;-70
2021/06/16 06:25:56;;;;;;;6.72;4.30;;;26.30;62.40;;;;;;5120726;28;20319;-70
2021/06/16 06:28:22;;;;;;;10.10;4.03;;;26.80;62.60;;;;;;5120769;28;20023;-70
2021/06/16 06:30:48;;;;;;;7.63;4.30;;;27.10;62.70;;;;;;5120169;28;20056;-70
2021/06/16 06:33:13;;;;;;;8.25;4.20;;;27.20;62.00;;;;;;5120216;28;20035;-70
2021/06/16 06:35:40;;;;;;;11.13;3.92;;;27.40;62.20;;;;;;5120580;28;20023;-70
2021/06/16 06:38:06;;;;;;;5.85;4.28;;;27.70;61.30;;;;;;5120219;28;20430;-70
2021/06/16 06:40:32;;;;;;;9.70;4.32;;;27.90;60.30;;;;;;5120490;28;20028;-70
2021/06/16 06:42:58;;;;;;;8.07;4.05;;;27.90;60.10;;;;;;5120033;28;20044;-70
2021/06/16 06:45:23;;;;;;;11.70;4.35;;;27.80;60.20;;;;;;5120061;28;20080;-70
2021/06/16 06:47:49;;;;;;;8.10;4.00;;;27.70;60.80;;;;;;5120051;28;20031;-70
2021/06/16 06:50:15;;;;;;;9.98;3.67;;;27.70;60.80;;;;;;5120250;28;20028;-70
2021/06/16 06:52:43;;;;;;;7.25;4.22;;;28.00;60.90;;;;;;5120140;28;20362;-70
2021/06/16 06:55:10;;;;;;;7.00;3.70;;;28.20;58.70;;;;;;5120198;28;20027;-70
2021/06/16 06:57:36;;;;;;;7.57;3.90;;;28.30;59.20;;;;;;5119813;28;20031;-70
2021/06/16 07:00:03;;;;;;;5.78;3.35;;;28.70;58.30;;;;;;5120104;28;20031;-70
2021/06/16 07:02:29;;;;;;;6.10;3.38;;;28.90;60.00;;;;;;5119659;28;20032;-70
2021/06/16 07:04:54;;;;;;;9.38;3.28;;;29.10;60.50;;;;;;5120010;28;20027;-70
2021/06/16 07:07:20;;;;;;;4.82;2.97;;;29.40;60.40;;;;;;5119711;28;20032;-70
2021/06/16 07:09:47;;;;;;;11.52;3.85;;;29.60;60.30;;;;;;5119604;28;20028;-70
2021/06/16 07:12:14;;;;;;;6.47;3.42;;;29.80;60.40;;;;;;5119753;28;20028;-70
2021/06/16 07:14:40;;;;;;;6.70;3.58;;;29.90;60.40;;;;;;5119935;28;20051;-70
2021/06/16 07:17:07;;;;;;;6.30;3.78;;;30.10;59.20;;;;;;5119776;28;20061;-70
2021/06/16 07:19:33;;;;;;;6.80;3.47;;;29.90;59.60;;;;;;5119407;28;20433;-70
2021/06/16 07:21:58;;;;;;;8.23;3.40;;;29.70;59.90;;;;;;5119655;28;20050;-70
2021/06/16 07:24:24;;;;;;;10.82;3.70;;;29.80;60.00;;;;;;5119381;28;20046;-70
2021/06/16 07:26:50;;;;;;;8.00;3.78;;;29.30;60.70;;;;;;5119130;28;20032;-70
2021/06/16 07:29:16;;;;;;;8.35;4.28;;;28.70;61.70;;;;;;5119287;28;20040;-70
2021/06/16 07:31:42;;;;;;;5.68;4.15;;;27.90;62.90;;;;;;5118409;28;20047;-70
2021/06/16 07:34:08;;;;;;;6.60;4.28;;;27.10;65.80;;;;;;5119430;28;20063;-70
2021/06/16 07:36:34;;;;;;;8.02;4.63;;;26.50;67.70;;;;;;5119356;28;20024;-69
2021/06/16 07:38:59;;;;;;;9.38;5.32;;;26.30;69.30;;;;;;5119050;28;20020;-69
2021/06/16 07:41:25;;;;;;;7.00;5.15;;;26.10;68.80;;;;;;5119290;28;20031;-69
2021/06/16 07:43:51;;;;;;;8.20;5.43;;;25.90;68.90;;;;;;5119368;28;20408;-69
2021/06/16 07:46:17;;;;;;;7.95;5.60;;;25.70;71.00;;;;;;5119186;28;20051;-69
2021/06/16 07:48:43;;;;;;;10.07;5.25;;;25.40;68.90;;;;;;5119140;28;20051;-70
2021/06/16 07:51:10;;;;;;;7.57;5.68;;;25.40;71.00;;;;;;5118866;28;20070;-70
2021/06/16 07:53:36;;;;;;;7.78;5.47;;;25.80;72.50;;;;;;5119028;28;20036;-70
2021/06/16 07:56:02;;;;;;;7.55;5.32;;;26.40;68.40;;;;;;5118949;28;20023;-70
2021/06/16 07:58:28;;;;;;;8.30;4.75;;;26.90;66.30;;;;;;5118943;28;20124;-70
2021/06/16 08:00:54;;;;;;;6.95;4.10;;;27.50;65.00;;;;;;5118962;28;20357;-70
2021/06/16 08:03:20;;;;;;;6.88;4.57;;;28.30;64.20;;;;;;5118854;28;20039;-70
2021/06/16 08:05:47;;;;;;;9.88;4.68;;;29.00;63.30;;;;;;5118385;28;20031;-70
2021/06/16 08:08:13;;;;;;;6.70;3.83;;;29.20;61.20;;;;;;5117772;28;20038;-70
2021/06/16 08:10:38;;;;;;;8.35;4.85;;;29.50;63.20;;;;;;5118748;28;20023;-70
2021/06/16 08:13:04;;;;;;;5.40;4.65;;;29.70;61.50;;;;;;5118483;28;20330;-70
2021/06/16 08:15:30;;;;;;;8.52;4.80;;;29.50;60.50;;;;;;5118641;28;20418;-70
2021/06/16 08:17:57;;;;;;;7.53;4.20;;;29.70;60.00;;;;;;5118585;28;20415;-70
2021/06/16 08:20:22;;;;;;;5.97;4.40;;;29.70;60.50;;;;;;5118557;28;20032;-70
2021/06/16 08:22:48;;;;;;;6.75;3.75;;;30.10;60.30;;;;;;5118170;28;20388;-70
2021/06/16 08:25:14;;;;;;;9.73;4.50;;;30.30;59.70;;;;;;5118445;28;20019;-70
2021/06/16 08:27:41;;;;;;;5.40;4.00;;;30.50;61.20;;;;;;5118426;28;20028;-70
2021/06/16 08:30:08;;;;;;;9.00;4.47;;;30.80;58.30;;;;;;5117876;28;20051;-70
2021/06/16 08:32:34;;;;;;;9.18;4.00;;;31.20;58.00;;;;;;5118203;28;20046;-70
2021/06/16 08:35:00;;;;;;;7.22;4.55;;;31.30;58.30;;;;;;5118304;28;20099;-70
2021/06/16 08:37:26;;;;;;;6.90;4.40;;;31.50;57.20;;;;;;5117941;28;20020;-70
2021/06/16 08:39:51;;;;;;;6.75;4.97;;;31.30;56.00;;;;;;5118204;28;20102;-69
2021/06/16 08:42:17;;;;;;;12.45;5.45;;;31.10;57.50;;;;;;5118127;28;20023;-70
2021/06/16 08:44:43;;;;;;;12.05;5.03;;;30.80;57.50;;;;;;5117974;28;20416;-69
2021/06/16 08:47:09;;;;;;;6.22;4.55;;;30.40;58.70;;;;;;5117718;28;20031;-70
2021/06/16 08:49:35;;;;;;;10.48;5.38;;;30.40;58.30;;;;;;5118013;28;20024;-70
2021/06/16 08:52:03;;;;;;;8.93;5.90;;;30.80;57.80;;;;;;5117533;28;20407;-69
2021/06/16 08:54:30;;;;;;;7.28;4.82;;;31.30;55.60;;;;;;5117657;28;20019;-70
2021/06/16 08:56:56;;;;;;;8.25;4.88;;;31.30;56.70;;;;;;5117494;28;20023;-70
2021/06/16 08:59:21;;;;;;;9.38;6.50;;;31.40;57.40;;;;;;5117542;28;20033;-69
2021/06/16 09:01:47;;;;;;;19.52;5.63;;;31.50;56.80;;;;;;5117483;28;20027;-70
2021/06/16 09:04:41;;;;;;;9.60;5.90;;;31.60;59.10;;;;;;5117528;28;20024;-70
2021/06/16 09:07:12;;;;;;;8.93;5.43;;;31.80;56.60;;;;;;5117495;28;20036;-70
2021/06/16 09:09:37;;;;;;;7.40;3.78;;;31.90;56.40;;;;;;5117444;28;20023;-70
2021/06/16 09:12:05;;;;;;;11.02;5.10;;;32.20;59.80;;;;;;5117257;28;20114;-70
2021/06/16 09:14:32;;;;;;;8.05;5.40;;;32.30;56.10;;;;;;5117746;28;20111;-69
2021/06/16 09:17:02;;;;;;;9.93;5.82;;;32.40;54.80;;;;;;5117504;28;20362;-69
2021/06/16 09:19:36;;;;;;;9.82;4.97;;;31.90;54.40;;;;;;5117660;28;20091;-70
2021/06/16 09:22:02;;;;;;;12.90;6.72;;;31.70;56.10;;;;;;5117878;28;20027;-69
2021/06/16 09:24:50;;;;;;;10.80;6.15;;;31.80;53.40;;;;;;5117597;28;20313;-70
2021/06/16 09:27:50;;;;;;;8.98;4.65;;;31.80;54.50;;;;;;5117146;28;20077;-70
2021/06/16 09:30:18;;;;;;;10.45;5.25;;;31.90;57.50;;;;;;5083812;28;20047;-70
2021/06/16 09:32:44;;;;;;;7.30;4.93;;;32.20;56.40;;;;;;5117015;28;20028;-69
2021/06/16 09:35:21;;;;;;;11.80;7.10;;;32.50;56.10;;;;;;5117067;28;20428;-69
2021/06/16 09:37:46;;;;;;;21.30;6.22;;;32.00;53.20;;;;;;5117374;28;20030;-69
2021/06/16 09:40:12;;;;;;;10.30;4.75;;;31.80;55.90;;;;;;5117351;28;20375;-70
2021/06/16 09:42:38;;;;;;;10.55;5.13;;;31.70;60.10;;;;;;5116914;28;20420;-70
2021/06/16 09:45:05;;;;;;;11.93;5.32;;;31.80;59.30;;;;;;5115899;28;20063;-70
2021/06/16 09:47:30;;;;;;;5.32;3.53;;;32.10;57.50;;;;;;5117297;28;20023;-70
2021/06/16 09:49:58;;;;;;;11.07;5.68;;;32.10;58.50;;;;;;5117281;28;20031;-69
2021/06/16 09:52:37;;;;;;;7.78;4.47;;;31.90;56.40;;;;;;5116847;28;20427;-69
2021/06/16 09:55:23;;;;;;;12.68;5.20;;;31.60;58.50;;;;;;5117609;28;20020;-69
2021/06/16 09:58:09;;;;;;;10.77;5.32;;;31.80;55.30;;;;;;5121376;28;20028;-69
2021/06/16 10:00:43;;;;;;;;;;;31.60;57.60;;;;;;5121750;28;20054;-70
2021/06/16 10:03:21;;;;;;;11.07;5.90;;;31.80;55.40;;;;;;5121308;28;19982;-70
2021/06/16 10:06:08;;;;;;;10.43;5.65;;;32.20;56.70;;;;;;5121191;28;20024;-70
2021/06/16 10:08:44;;;;;;;13.18;4.40;;;32.40;56.90;;;;;;5121148;28;20039;-70
2021/06/16 10:11:20;;;;;;;8.07;4.80;;;32.40;58.40;;;;;;5120785;28;20080;-70
2021/06/16 10:13:48;;;;;;;9.68;6.28;;;32.60;59.00;;;;;;5119746;28;20078;-70
2021/06/16 10:16:14;;;;;;;8.57;5.30;;;32.50;53.70;;;;;;5119748;28;20023;-70
2021/06/16 10:18:42;;;;;;;9.85;5.78;;;32.10;57.00;;;;;;5112464;28;20024;-70
2021/06/16 10:21:10;;;;;;;7.82;5.40;;;31.50;56.10;;;;;;5102230;28;20028;-70
2021/06/16 10:23:36;;;;;;;13.52;6.05;;;31.20;59.40;;;;;;5100437;28;20316;-70
2021/06/16 10:26:07;;;;;;;15.65;6.78;;;31.10;59.20;;;;;;5099963;28;20110;-70
2021/06/16 10:28:37;;;;;;;9.48;5.40;;;31.50;57.00;;;;;;5100359;28;20020;-70
2021/06/16 10:31:04;;;;;;;11.02;5.65;;;31.60;56.90;;;;;;5099906;28;20074;-70
2021/06/16 10:33:36;;;;;;;10.48;5.68;;;31.40;57.70;;;;;;5098839;28;20025;-70
2021/06/16 10:36:11;;;;;;;10.35;6.57;;;30.80;59.60;;;;;;5100165;28;20028;-70
2021/06/16 10:38:39;;;;;;;16.85;6.80;;;30.00;59.50;;;;;;5100233;28;20032;-70
2021/06/16 10:41:05;;;;;;;8.45;5.25;;;29.70;62.40;;;;;;5099739;28;20016;-70
2021/06/16 10:43:32;;;;;;;14.50;7.05;;;30.10;66.10;;;;;;5100117;28;20073;-70
2021/06/16 10:45:59;;;;;;;7.00;5.97;;;30.50;60.00;;;;;;5099673;28;20328;-70
2021/06/16 10:48:41;;;;;;;9.23;5.90;;;31.00;58.40;;;;;;5099663;28;20024;-70
2021/06/16 10:51:08;;;;;;;13.13;6.38;;;31.30;60.90;;;;;;5099585;28;20035;-70
2021/06/16 10:53:33;;;;;;;11.80;7.93;;;31.40;59.00;;;;;;5099470;28;20475;-70
2021/06/16 10:56:06;;;;;;;8.35;6.70;;;31.50;55.50;;;;;;5099733;28;20109;-70
2021/06/16 10:58:58;;;;;;;10.68;5.22;;;31.50;61.70;;;;;;5099741;28;20024;-70
2021/06/16 11:01:24;;;;;;;13.00;6.63;;;31.40;61.20;;;;;;5095793;28;20400;-70
2021/06/16 11:03:53;;;;;;;11.07;6.20;;;31.10;59.00;;;;;;5099376;28;20028;-70
2021/06/16 11:06:33;;;;;;;12.50;5.65;;;31.10;60.80;;;;;;5099440;28;20039;-70
2021/06/16 11:09:00;;;;;;;9.25;6.75;;;30.50;62.10;;;;;;5099554;28;20028;-70
2021/06/16 11:12:00;;;;;;;9.77;6.22;;;30.80;59.10;;;;;;5099189;28;20028;-70
2021/06/16 11:14:39;;;;;;;11.02;6.50;;;31.10;61.60;;;;;;5099406;28;20040;-70
2021/06/16 11:17:27;;;;;;;9.32;5.88;;;31.20;61.50;;;;;;5099689;28;20293;-70
2021/06/16 11:20:10;;;;;;;11.60;6.78;;;31.40;62.80;;;;;;5099341;28;20101;-70
2021/06/16 11:22:39;;;;;;;11.93;6.50;;;31.60;56.30;;;;;;5099340;28;20032;-70
2021/06/16 11:25:05;;;;;;;10.27;5.57;;;31.50;61.20;;;;;;5099209;28;20124;-70
2021/06/16 11:28:12;;;;;;;15.07;8.50;;;31.70;60.70;;;;;;5098878;28;20123;-70
2021/06/16 11:31:05;;;;;;;11.88;5.93;;;31.60;58.40;;;;;;5098855;28;20313;-70
2021/06/16 11:33:37;;;;;;;8.90;5.28;;;31.60;58.70;;;;;;5088851;28;20343;-70
2021/06/16 11:36:07;;;;;;;10.07;6.28;;;31.50;62.50;;;;;;5098733;28;20024;-70
2021/06/16 11:38:55;;;;;;;10.60;7.10;;;31.60;58.70;;;;;;5099011;28;20328;-70
2021/06/16 11:41:23;;;;;;;12.48;7.60;;;31.40;58.80;;;;;;5098180;28;20096;-69
2021/06/16 11:43:59;;;;;;;9.70;6.70;;;31.20;59.40;;;;;;5099006;28;20040;-70
2021/06/16 11:46:51;;;;;;;12.25;7.07;;;31.10;59.10;;;;;;5098482;28;20024;-70
2021/06/16 11:49:20;;;;;;;10.63;7.15;;;31.20;59.10;;;;;;5094835;28;20064;-70
2021/06/16 11:52:00;;;;;;;12.57;6.35;;;31.20;61.50;;;;;;5098698;28;20032;-70
2021/06/16 11:54:49;;;;;;;12.20;6.88;;;31.00;61.00;;;;;;5098635;28;20028;-70
2021/06/16 11:57:14;;;;;;;12.77;6.13;;;30.90;61.10;;;;;;5097842;28;20446;-70
2021/06/16 11:59:46;;;;;;;12.63;8.02;;;30.90;64.50;;;;;;5098549;28;20032;-70
2021/06/16 12:02:22;;;;;;;14.50;7.05;;;30.50;58.00;;;;;;5098427;28;20431;-70
2021/06/16 12:04:49;;;;;;;13.82;9.80;;;30.50;59.80;;;;;;5098483;28;20342;-70
2021/06/16 12:07:27;;;;;;;12.82;6.93;;;30.60;57.90;;;;;;5098445;28;20020;-70
2021/06/16 12:09:58;;;;;;;13.85;6.20;;;30.20;59.30;;;;;;5098136;28;20028;-70
2021/06/16 12:12:24;;;;;;;10.27;6.65;;;30.20;64.30;;;;;;5097946;28;20021;-70
2021/06/16 12:15:11;;;;;;;9.65;6.47;;;29.80;63.00;;;;;;5098422;28;20032;-70
2021/06/16 12:18:05;;;;;;;14.48;7.90;;;29.80;63.70;;;;;;5097719;28;20398;-70
2021/06/16 12:20:35;;;;;;;9.75;6.90;;;29.50;60.10;;;;;;5098194;28;20103;-70
2021/06/16 12:23:16;;;;;;;12.32;7.82;;;29.20;61.70;;;;;;5098422;28;20077;-70
2021/06/16 12:25:42;;;;;;;8.70;6.65;;;29.20;61.80;;;;;;5098071;28;20028;-70
2021/06/16 12:28:08;;;;;;;11.68;6.63;;;29.20;62.90;;;;;;5098051;28;20074;-70
2021/06/16 12:30:36;;;;;;;10.68;5.90;;;29.30;64.40;;;;;;5097604;28;20375;-70
2021/06/16 12:33:18;;;;;;;12.07;7.55;;;29.40;65.50;;;;;;5097802;28;20028;-70
2021/06/16 12:36:07;;;;;;;18.90;7.32;;;29.30;62.30;;;;;;5097870;28;20028;-70
2021/06/16 12:38:36;;;;;;;9.43;6.43;;;29.10;62.80;;;;;;5097553;28;20412;-70
2021/06/16 12:41:20;;;;;;;9.43;6.55;;;29.20;63.10;;;;;;5097802;28;20102;-70
2021/06/16 12:43:46;;;;;;;9.18;6.47;;;29.10;63.30;;;;;;5097671;28;20036;-70
2021/06/16 12:46:11;;;;;;;11.63;6.55;;;29.20;64.20;;;;;;5097325;28;20040;-70
2021/06/16 12:48:37;;;;;;;9.30;7.57;;;29.40;62.70;;;;;;5097337;28;20028;-70
2021/06/16 12:51:04;;;;;;;12.55;6.55;;;29.50;61.40;;;;;;5097306;28;20032;-69
2021/06/16 12:53:36;;;;;;;13.45;5.90;;;29.40;62.20;;;;;;5097515;28;20024;-69